createdAt,value
2022-11-01T00:00:19.801Z,34.60
2022-11-01T00:03:25.505Z,42.47
2022-11-01T00:06:31.240Z,35.40
2022-11-01T00:09:37.802Z,37.38
2022-11-01T00:12:44.744Z,43.25
2022-11-01T00:15:49.974Z,43.78
2022-11-01T00:18:55.765Z,39.47
2022-11-01T00:22:01.104Z,34.80
2022-11-01T00:25:07.028Z,37.03
2022-11-01T00:28:12.809Z,42.55
2022-11-01T00:31:20.870Z,42.10
2022-11-01T00:34:26.316Z,32.25
2022-11-01T00:37:32.166Z,40.80
2022-11-01T00:40:37.813Z,41.33
2022-11-01T00:43:42.952Z,37.97
2022-11-01T00:46:48.080Z,37.38
2022-11-01T00:49:53.169Z,31.55
2022-11-01T00:52:58.628Z,37.22
2022-11-01T00:56:06.761Z,35.22
2022-11-01T00:59:12.057Z,37.28
2022-11-01T01:02:17.716Z,37.13
2022-11-01T01:05:23.642Z,36.65
2022-11-01T01:08:29.047Z,34.75
2022-11-01T01:11:34.723Z,31.95
2022-11-01T01:14:40.469Z,31.95
2022-11-01T01:17:46.019Z,36.28
2022-11-01T01:20:51.539Z,44.13
2022-11-01T01:23:57.038Z,37.38
2022-11-01T01:27:03.738Z,37.95
2022-11-01T01:30:09.747Z,33.97
2022-11-01T01:33:15.268Z,33.05
2022-11-01T01:36:21.279Z,39.38
2022-11-01T01:39:26.613Z,34.15
2022-11-01T01:42:41.290Z,34.72
2022-11-01T01:45:47.294Z,33.22
2022-11-01T01:48:57.977Z,30.70
2022-11-01T01:52:05.078Z,36.73
2022-11-01T01:55:12.767Z,36.22
2022-11-01T01:58:23.126Z,34.55
2022-11-01T02:01:29.634Z,34.75
2022-11-01T02:04:49.776Z,31.27
2022-11-01T02:07:57.213Z,38.53
2022-11-01T02:11:07.716Z,40.13
2022-11-01T02:14:13.783Z,38.95
2022-11-01T02:17:22.543Z,31.45
2022-11-01T02:20:43.784Z,30.08
2022-11-01T02:27:24.981Z,25.40
2022-11-01T02:30:43.788Z,27.85
2022-11-01T02:34:01.835Z,23.80
2022-11-01T02:37:47.995Z,31.17
2022-11-01T02:40:59.786Z,23.48
2022-11-01T02:44:12.849Z,27.67
2022-11-01T02:47:19.567Z,26.83
2022-11-01T02:50:28.345Z,22.45
2022-11-01T02:53:33.927Z,28.52
2022-11-01T02:56:39.724Z,28.65
2022-11-01T02:59:47.851Z,22.33
2022-11-01T03:03:03.776Z,21.52
2022-11-01T03:06:18.965Z,18.58
2022-11-01T03:09:25.477Z,20.10
2022-11-01T03:12:36.051Z,22.95
2022-11-01T03:15:57.613Z,23.45
2022-11-01T03:19:21.600Z,22.60
2022-11-01T03:22:41.671Z,29.70
2022-11-01T03:25:55.656Z,22.05
2022-11-01T03:29:07.115Z,20.65
2022-11-01T03:32:15.379Z,22.73
2022-11-01T03:35:25.017Z,36.35
2022-11-01T03:38:36.335Z,23.50
2022-11-01T03:41:49.740Z,25.08
2022-11-01T03:45:03.285Z,29.20
2022-11-01T03:48:09.027Z,28.65
2022-11-01T03:51:14.749Z,22.88
2022-11-01T03:54:20.403Z,25.92
2022-11-01T03:57:26.049Z,20.60
2022-11-01T04:00:34.752Z,30.40
2022-11-01T04:03:40.333Z,22.65
2022-11-01T04:06:45.563Z,21.42
2022-11-01T04:09:51.503Z,24.10
2022-11-01T04:12:57.879Z,30.10
2022-11-01T04:16:21.786Z,23.95
2022-11-01T04:19:45.878Z,25.55
2022-11-01T04:22:51.341Z,19.08
2022-11-01T04:25:57.241Z,20.95
2022-11-01T04:29:02.813Z,19.42
2022-11-01T04:32:08.158Z,21.33
2022-11-01T04:35:13.484Z,23.58
2022-11-01T04:38:18.736Z,23.55
2022-11-01T04:41:28.977Z,28.13
2022-11-01T04:44:34.308Z,22.35
2022-11-01T04:47:39.995Z,18.58
2022-11-01T04:50:46.282Z,31.33
2022-11-01T04:53:51.764Z,25.67
2022-11-01T04:56:59.083Z,25.92
2022-11-01T05:00:05.399Z,22.90
2022-11-01T05:03:12.293Z,21.23
2022-11-01T05:06:18.390Z,19.63
2022-11-01T05:09:24.084Z,19.60
2022-11-01T05:12:29.637Z,18.98
2022-11-01T05:15:39.991Z,26.40
2022-11-01T05:18:45.731Z,25.48
2022-11-01T05:21:51.238Z,19.05
2022-11-01T05:24:56.768Z,19.85
2022-11-01T05:28:08.535Z,19.85
2022-11-01T05:31:14.283Z,23.23
2022-11-01T05:34:19.746Z,16.75
2022-11-01T05:37:28.049Z,19.70
2022-11-01T05:40:34.201Z,19.10
2022-11-01T05:43:39.397Z,15.98
2022-11-01T05:46:45.080Z,19.17
2022-11-01T05:49:50.407Z,18.67
2022-11-01T05:52:55.885Z,23.02
2022-11-01T05:56:01.753Z,23.20
2022-11-01T05:59:06.868Z,22.75
2022-11-01T06:02:12.117Z,21.73
2022-11-01T06:05:17.453Z,26.25
2022-11-01T06:08:22.395Z,19.55
2022-11-01T06:11:28.221Z,26.85
2022-11-01T06:17:43.969Z,30.05
2022-11-01T06:20:49.776Z,25.23
2022-11-01T06:23:54.932Z,26.52
2022-11-01T06:27:00.149Z,22.60
2022-11-01T06:30:05.976Z,22.13
2022-11-01T06:33:11.332Z,25.52
2022-11-01T06:36:16.971Z,26.02
2022-11-01T06:39:22.251Z,28.38
2022-11-01T06:42:27.395Z,22.33
2022-11-01T06:45:33.162Z,30.42
2022-11-01T06:48:38.969Z,23.48
2022-11-01T06:51:44.342Z,23.15
2022-11-01T06:54:49.533Z,22.70
2022-11-01T06:58:00.284Z,27.85
2022-11-01T07:01:06.211Z,26.02
2022-11-01T07:07:22.682Z,69.28
2022-11-01T07:10:29.217Z,51.55
2022-11-01T07:13:37.427Z,62.33
2022-11-01T07:16:43.070Z,50.85
2022-11-01T07:19:48.600Z,63.83
2022-11-01T07:23:02.365Z,56.53
2022-11-01T07:26:08.026Z,57.30
2022-11-01T07:29:13.772Z,58.70
2022-11-01T07:32:19.212Z,46.70
2022-11-01T07:35:25.650Z,43.17
2022-11-01T07:38:31.069Z,46.72
2022-11-01T07:41:36.599Z,39.05
2022-11-01T07:44:45.758Z,50.55
2022-11-01T07:47:51.151Z,44.50
2022-11-01T07:50:57.691Z,44.50
2022-11-01T07:54:03.226Z,51.13
2022-11-01T07:57:09.674Z,44.00
2022-11-01T08:00:15.967Z,44.03
2022-11-01T08:03:22.521Z,42.45
2022-11-01T08:06:27.942Z,37.78
2022-11-01T08:09:34.809Z,46.38
2022-11-01T08:12:40.144Z,40.83
2022-11-01T08:15:48.000Z,43.30
2022-11-01T08:18:55.378Z,35.60
2022-11-01T08:22:01.748Z,32.92
2022-11-01T08:25:09.044Z,37.67
2022-11-01T08:28:18.574Z,39.08
2022-11-01T08:31:25.023Z,40.08
2022-11-01T08:34:31.281Z,47.40
2022-11-01T08:37:36.693Z,37.63
2022-11-01T08:40:41.866Z,41.67
2022-11-01T08:43:47.435Z,36.15
2022-11-01T08:46:56.101Z,33.17
2022-11-01T08:50:03.272Z,38.67
2022-11-01T08:53:13.800Z,38.05
2022-11-01T08:56:21.200Z,35.78
2022-11-01T08:59:26.661Z,32.50
2022-11-01T09:02:32.471Z,32.70
2022-11-01T09:05:38.161Z,31.75
2022-11-01T09:08:43.744Z,35.88
2022-11-01T09:11:49.606Z,30.70
2022-11-01T09:14:55.261Z,35.28
2022-11-01T09:18:06.357Z,31.17
2022-11-01T09:21:12.119Z,29.55
2022-11-01T09:24:18.464Z,30.52
2022-11-01T09:27:24.077Z,31.67
2022-11-01T09:30:30.734Z,34.53
2022-11-01T09:33:36.667Z,27.55
2022-11-01T09:36:42.207Z,32.97
2022-11-01T09:39:47.675Z,36.15
2022-11-01T09:42:59.114Z,30.02
2022-11-01T09:46:15.114Z,32.63
2022-11-01T09:49:31.514Z,30.02
2022-11-01T09:52:36.955Z,30.58
2022-11-01T09:56:13.043Z,29.70
2022-11-01T09:59:27.643Z,35.47
2022-11-01T10:02:57.681Z,30.38
2022-11-01T10:06:15.750Z,34.88
2022-11-01T10:09:39.578Z,30.05
2022-11-01T10:13:16.425Z,35.28
2022-11-01T10:16:36.793Z,31.55
2022-11-01T10:19:47.482Z,31.83
2022-11-01T10:22:52.816Z,30.38
2022-11-01T10:25:58.456Z,35.63
2022-11-01T10:29:07.700Z,32.63
2022-11-01T10:32:38.709Z,35.22
2022-11-01T10:35:52.159Z,47.70
2022-11-01T10:39:53.529Z,34.22
2022-11-01T10:42:46.816Z,42.85
2022-11-01T10:45:57.215Z,38.33
2022-11-01T10:49:07.157Z,36.20
2022-11-01T10:52:18.096Z,35.70
2022-11-01T10:55:49.784Z,35.97
2022-11-01T11:02:03.352Z,39.97
2022-11-01T11:05:14.160Z,45.83
2022-11-01T11:08:22.799Z,56.00
2022-11-01T11:11:37.279Z,42.65
2022-11-01T11:14:49.267Z,48.85
2022-11-01T11:17:58.496Z,40.65
2022-11-01T11:21:09.203Z,49.28
2022-11-01T11:24:21.150Z,46.80
2022-11-01T11:27:31.201Z,41.85
2022-11-01T11:30:36.875Z,42.92
2022-11-01T11:34:38.452Z,52.92
2022-11-01T11:38:06.796Z,40.78
2022-11-01T11:41:27.320Z,44.08
2022-11-01T11:44:41.457Z,44.95
2022-11-01T11:47:50.331Z,50.10
2022-11-01T11:51:16.160Z,52.53
2022-11-01T11:54:32.000Z,50.42
2022-11-01T11:57:37.469Z,51.83
2022-11-01T12:00:48.242Z,45.80
2022-11-01T12:04:05.511Z,45.30
2022-11-01T12:07:40.191Z,46.22
2022-11-01T12:10:47.007Z,34.15
2022-11-01T12:14:22.087Z,27.52
2022-11-01T12:17:45.902Z,25.17
2022-11-01T12:20:53.149Z,30.17
2022-11-01T12:24:27.408Z,23.00
2022-11-01T12:27:36.464Z,34.30
2022-11-01T12:30:43.756Z,25.20
2022-11-01T12:33:59.110Z,31.52
2022-11-01T12:37:18.253Z,24.02
2022-11-01T12:40:29.020Z,32.25
2022-11-01T12:43:43.183Z,26.10
2022-11-01T12:47:33.893Z,38.90
2022-11-01T12:50:54.501Z,24.30
2022-11-01T12:54:23.244Z,26.88
2022-11-01T12:57:28.874Z,17.83
2022-11-01T13:01:05.791Z,21.60
2022-11-01T13:04:30.338Z,30.95
2022-11-01T13:07:57.811Z,26.33
2022-11-01T13:11:26.041Z,19.02
2022-11-01T13:15:01.780Z,26.85
2022-11-01T13:18:21.451Z,18.23
2022-11-01T13:21:56.624Z,19.13
2022-11-01T13:25:13.920Z,31.77
2022-11-01T13:28:53.155Z,28.23
2022-11-01T13:32:14.274Z,23.88
2022-11-01T13:35:43.127Z,33.08
2022-11-01T13:38:59.298Z,32.90
2022-11-01T13:42:17.045Z,21.50
2022-11-01T13:45:54.286Z,21.75
2022-11-01T13:49:08.466Z,28.73
2022-11-01T13:52:13.876Z,24.77
2022-11-01T13:55:27.732Z,28.77
2022-11-01T13:58:34.126Z,24.65
2022-11-01T14:01:42.523Z,28.85
2022-11-01T14:05:03.388Z,20.23
2022-11-01T14:08:16.004Z,28.85
2022-11-01T14:11:45.254Z,27.05
2022-11-01T14:14:52.211Z,23.98
2022-11-01T14:18:11.624Z,27.92
2022-11-01T14:21:32.257Z,28.80
2022-11-01T14:25:15.887Z,26.37
2022-11-01T14:28:21.793Z,22.38
2022-11-01T14:31:32.398Z,29.45
2022-11-01T14:34:39.300Z,23.67
2022-11-01T14:37:54.274Z,24.45
2022-11-01T14:41:00.806Z,28.98
2022-11-01T14:44:18.691Z,22.15
2022-11-01T14:47:41.209Z,25.20
2022-11-01T14:51:17.141Z,29.33
2022-11-01T14:54:37.186Z,25.83
2022-11-01T14:57:43.486Z,26.60
2022-11-01T15:00:52.182Z,26.20
2022-11-01T15:04:00.275Z,30.92
2022-11-01T15:07:27.836Z,30.90
2022-11-01T15:10:43.503Z,23.38
2022-11-01T15:13:50.140Z,29.27
2022-11-01T15:16:56.834Z,27.83
2022-11-01T15:20:13.422Z,25.48
2022-11-01T15:23:27.791Z,25.45
2022-11-01T15:26:34.399Z,24.58
2022-11-01T15:29:39.528Z,38.35
2022-11-01T15:32:45.355Z,31.85
2022-11-01T15:35:56.489Z,25.85
2022-11-01T15:39:05.005Z,28.02
2022-11-01T15:42:20.418Z,27.33
2022-11-01T15:45:31.037Z,32.15
2022-11-01T15:48:38.325Z,30.83
2022-11-01T15:51:55.791Z,22.17
2022-11-01T15:55:17.344Z,30.25
2022-11-01T15:58:30.984Z,26.33
2022-11-01T16:01:38.279Z,26.80
2022-11-01T16:04:46.844Z,33.42
2022-11-01T16:07:53.019Z,37.80
2022-11-01T16:11:00.110Z,25.50
2022-11-01T16:14:14.790Z,30.50
2022-11-01T16:17:34.195Z,26.27
2022-11-01T16:20:47.438Z,30.48
2022-11-01T16:23:57.890Z,27.45
2022-11-01T16:27:08.220Z,25.15
2022-11-01T16:30:46.551Z,29.33
2022-11-01T16:33:56.689Z,27.38
2022-11-01T16:37:01.942Z,35.45
2022-11-01T16:40:27.101Z,37.45
2022-11-01T16:43:35.204Z,33.00
2022-11-01T16:46:40.931Z,29.45
2022-11-01T16:49:54.600Z,24.02
2022-11-01T16:53:00.691Z,30.70
2022-11-01T16:56:35.114Z,31.05
2022-11-01T16:59:38.379Z,23.27
2022-11-01T17:02:44.755Z,23.95
2022-11-01T17:05:56.059Z,27.90
2022-11-01T17:09:02.351Z,29.13
2022-11-01T17:12:08.722Z,25.45
2022-11-01T17:15:18.535Z,28.17
2022-11-01T17:18:32.668Z,28.48
2022-11-01T17:21:40.082Z,32.63
2022-11-01T17:24:46.345Z,28.55
2022-11-01T17:27:52.168Z,45.67
2022-11-01T17:30:57.651Z,26.33
2022-11-01T17:34:03.478Z,32.83
2022-11-01T17:37:15.052Z,25.65
2022-11-01T17:43:27.121Z,30.60
2022-11-01T17:46:32.727Z,30.90
2022-11-01T17:49:38.626Z,28.42
2022-11-01T17:52:44.331Z,19.92
2022-11-01T17:55:57.293Z,28.60
2022-11-01T17:59:02.951Z,25.73
2022-11-01T18:02:10.135Z,27.35
2022-11-01T18:05:15.814Z,27.13
2022-11-01T18:08:26.361Z,26.63
2022-11-01T18:11:51.825Z,31.27
2022-11-01T18:15:22.384Z,24.50
2022-11-01T18:18:49.316Z,21.83
2022-11-01T18:22:31.508Z,30.90
2022-11-01T18:25:41.311Z,30.23
2022-11-01T18:28:46.641Z,29.77
2022-11-01T18:32:02.708Z,26.40
2022-11-01T18:35:25.026Z,29.13
2022-11-01T18:38:42.567Z,30.02
2022-11-01T18:41:50.131Z,32.92
2022-11-01T18:45:06.636Z,27.75
2022-11-01T18:48:29.034Z,40.85
2022-11-01T18:51:34.838Z,25.50
2022-11-01T18:54:56.058Z,32.60
2022-11-01T18:58:16.726Z,30.48
2022-11-01T19:01:33.896Z,27.35
2022-11-01T19:04:43.224Z,29.42
2022-11-01T19:08:10.965Z,27.85
2022-11-01T19:11:17.765Z,34.13
2022-11-01T19:14:23.594Z,26.42
2022-11-01T19:17:37.482Z,32.08
2022-11-01T19:20:53.099Z,27.60
2022-11-01T19:23:58.602Z,33.35
2022-11-01T19:27:15.766Z,25.40
2022-11-01T19:30:29.004Z,36.60
2022-11-01T19:33:38.162Z,34.05
2022-11-01T19:36:45.126Z,30.77
2022-11-01T19:39:50.624Z,34.17
2022-11-01T19:42:58.242Z,26.70
2022-11-01T19:46:03.383Z,33.83
2022-11-01T19:49:38.015Z,31.63
2022-11-01T19:52:47.439Z,36.67
2022-11-01T19:55:58.423Z,32.90
2022-11-01T19:59:17.020Z,32.97
2022-11-01T20:02:25.017Z,34.60
2022-11-01T20:05:36.020Z,33.83
2022-11-01T20:08:44.409Z,34.80
2022-11-01T20:11:51.926Z,32.92
2022-11-01T20:14:57.691Z,34.38
2022-11-01T20:18:04.634Z,34.30
2022-11-01T20:21:11.827Z,35.95
2022-11-01T20:24:19.293Z,33.38
2022-11-01T20:27:26.390Z,32.05
2022-11-01T20:30:32.253Z,38.33
2022-11-01T20:33:39.392Z,31.70
2022-11-01T20:37:02.168Z,30.40
2022-11-01T20:40:15.067Z,29.58
2022-11-01T20:43:21.986Z,31.20
2022-11-01T20:46:27.895Z,31.63
2022-11-01T20:49:34.973Z,40.33
2022-11-01T20:52:41.741Z,31.15
2022-11-01T20:55:48.537Z,35.88
2022-11-01T20:58:55.424Z,30.75
2022-11-01T21:02:01.341Z,30.25
2022-11-01T21:05:29.650Z,39.17
2022-11-01T21:08:37.350Z,37.60
2022-11-01T21:11:46.375Z,34.80
2022-11-01T21:14:54.987Z,35.90
2022-11-01T21:18:03.426Z,35.95
2022-11-01T21:21:14.717Z,35.83
2022-11-01T21:24:36.470Z,33.50
2022-11-01T21:27:43.460Z,37.28
2022-11-01T21:30:48.900Z,31.35
2022-11-01T21:34:04.854Z,34.83
2022-11-01T21:37:10.501Z,28.67
2022-11-01T21:40:34.315Z,33.17
2022-11-01T21:43:39.812Z,31.95
2022-11-01T21:46:54.679Z,30.63
2022-11-01T21:50:00.238Z,40.58
2022-11-01T21:53:06.331Z,30.02
2022-11-01T21:56:12.303Z,32.15
2022-11-01T21:59:17.892Z,31.20
2022-11-01T22:02:23.890Z,26.98
2022-11-01T22:05:29.812Z,31.45
2022-11-01T22:08:35.456Z,31.75
2022-11-01T22:11:41.275Z,31.15
2022-11-01T22:14:46.393Z,32.42
2022-11-01T22:17:51.873Z,29.52
2022-11-01T22:20:57.417Z,34.20
2022-11-01T22:24:03.868Z,28.05
2022-11-01T22:27:09.116Z,31.88
2022-11-01T22:30:15.808Z,27.00
2022-11-01T22:33:21.595Z,23.55
2022-11-01T22:36:29.763Z,34.65
2022-11-01T22:39:36.009Z,23.23
2022-11-01T22:42:41.969Z,28.55
2022-11-01T22:45:47.751Z,29.58
2022-11-01T22:49:01.031Z,26.90
2022-11-01T22:52:34.006Z,30.63
2022-11-01T22:55:43.593Z,29.05
2022-11-01T22:58:51.281Z,32.60
2022-11-01T23:02:07.600Z,33.20
2022-11-01T23:05:13.499Z,36.58
2022-11-01T23:08:32.474Z,35.35
2022-11-01T23:11:56.494Z,32.10
2022-11-01T23:15:01.644Z,33.08
2022-11-01T23:18:23.094Z,28.73
2022-11-01T23:21:28.969Z,34.97
2022-11-01T23:24:34.407Z,28.90
2022-11-01T23:27:44.488Z,33.08
2022-11-01T23:30:50.002Z,31.80
2022-11-01T23:33:55.921Z,30.48
2022-11-01T23:37:01.074Z,32.35
2022-11-01T23:40:16.883Z,33.22
2022-11-01T23:43:32.982Z,34.17
2022-11-01T23:46:38.680Z,35.22
2022-11-01T23:49:46.804Z,33.70
2022-11-01T23:52:58.841Z,35.05
2022-11-01T23:59:12.740Z,32.55
